EPZG/IEG METAR and TAF weather

Enter ICAO airport designator
Station Type Date Time Source
EPZG METAR 2020/06/02 18:00 UTC NOAA

EPZG 021800Z 33010KT 290V010 CAVOK 23/07 Q1010


Station Type Date Time Source
EPZG Decoded METAR 2020/06/02 18:00 UTC NOAA

Zielona Gora, Poland (EPZG) 51-56N 015-32E 192M
Jun 02, 2020 - 02:00 PM EDT / 2020.06.02 1800 UTC
Wind: from the NNW (330 degrees) at 12 MPH (10 KT) (direction variable):0
Visibility: greater than 7 mile(s):0
Temperature: 73 F (23 C)
Dew Point: 44 F (7 C)
Relative Humidity: 35%
Pressure (altimeter): 29.83 in. Hg (1010 hPa)
ob: EPZG 021800Z 33010KT 290V010 CAVOK 23/07 Q1010
cycle: 18

Station Type Date Time Source
EPZG TAF 2012/06/28 21:49 UTC NOAA

TAF EPZG 282000Z 2821/2906 VRB02KT CAVOK
TEMPO 2823/2904 5000 BR PROB30 2900/2904 1500 BR BKN005

Example: see airport list